createdAt,value
2022-12-14T00:04:20.371Z,14.60
2022-12-14T00:09:24.107Z,15.70
2022-12-14T00:14:29.056Z,16.08
2022-12-14T00:19:32.635Z,16.45
2022-12-14T00:24:36.195Z,14.55
2022-12-14T00:29:41.061Z,15.48
2022-12-14T00:34:44.582Z,15.23
2022-12-14T00:39:48.266Z,15.00
2022-12-14T00:44:53.216Z,16.50
2022-12-14T00:49:57.780Z,14.80
2022-12-14T00:55:01.344Z,14.07
2022-12-14T01:00:07.631Z,15.00
2022-12-14T01:05:11.573Z,14.27
2022-12-14T01:10:15.067Z,13.32
2022-12-14T01:15:20.113Z,14.73
2022-12-14T01:20:23.611Z,14.88
2022-12-14T01:25:27.477Z,14.57
2022-12-14T01:30:32.362Z,14.95
2022-12-14T01:35:35.947Z,14.85
2022-12-14T01:40:39.425Z,14.40
2022-12-14T01:45:44.408Z,13.60
2022-12-14T01:50:48.562Z,13.55
2022-12-14T01:55:56.017Z,13.50
2022-12-14T02:01:03.349Z,14.07
2022-12-14T02:06:10.657Z,12.80
2022-12-14T02:11:14.272Z,12.65
2022-12-14T02:16:19.351Z,14.18
2022-12-14T02:21:26.666Z,12.18
2022-12-14T02:26:57.313Z,10.95
2022-12-14T02:37:17.602Z,10.98
2022-12-14T02:42:27.575Z,11.57
2022-12-14T02:47:40.869Z,9.05
2022-12-14T02:52:54.732Z,11.02
2022-12-14T02:58:02.799Z,11.63
2022-12-14T03:03:08.275Z,10.98
2022-12-14T03:08:15.420Z,11.52
2022-12-14T03:13:23.470Z,10.93
2022-12-14T03:18:33.811Z,11.00
2022-12-14T03:23:40.622Z,10.10
2022-12-14T03:28:48.267Z,10.68
2022-12-14T03:33:56.781Z,10.43
2022-12-14T03:39:04.114Z,11.15
2022-12-14T03:44:23.232Z,12.63
2022-12-14T03:49:43.632Z,10.95
2022-12-14T03:54:54.574Z,10.07
2022-12-14T04:00:04.709Z,10.55
2022-12-14T04:05:23.486Z,10.50
2022-12-14T04:10:47.872Z,10.35
2022-12-14T04:16:13.261Z,10.32
2022-12-14T04:21:23.573Z,9.07
2022-12-14T04:26:33.166Z,10.60
2022-12-14T04:31:41.177Z,6.22
2022-12-14T04:36:50.085Z,9.63
2022-12-14T04:41:58.941Z,9.30
2022-12-14T04:47:03.792Z,9.63
2022-12-14T04:52:14.333Z,9.68
2022-12-14T04:57:25.575Z,8.95
2022-12-14T05:02:43.623Z,8.93
2022-12-14T05:07:57.037Z,9.45
2022-12-14T05:13:06.751Z,9.45
2022-12-14T05:18:10.884Z,6.20
2022-12-14T05:23:16.194Z,8.85
2022-12-14T05:28:19.800Z,8.68
2022-12-14T05:33:23.397Z,7.68
2022-12-14T05:38:28.342Z,8.75
2022-12-14T05:43:31.859Z,8.07
2022-12-14T05:48:36.213Z,8.15
2022-12-14T05:53:41.255Z,8.23
2022-12-14T05:58:44.778Z,7.57
2022-12-14T06:03:48.698Z,7.75
2022-12-14T06:08:53.678Z,6.95
2022-12-14T06:13:57.146Z,8.00
2022-12-14T06:19:02.554Z,7.45
2022-12-14T06:24:08.904Z,7.35
2022-12-14T06:29:16.763Z,7.30
2022-12-14T06:34:23.584Z,7.30
2022-12-14T06:39:33.075Z,7.93
2022-12-14T06:44:37.431Z,7.15
2022-12-14T06:49:40.970Z,8.30
2022-12-14T06:54:45.907Z,8.15
2022-12-14T06:59:49.391Z,7.78
2022-12-14T07:04:52.926Z,8.18
2022-12-14T07:09:57.765Z,9.27
2022-12-14T07:15:01.204Z,8.00
2022-12-14T07:20:07.571Z,7.45
2022-12-14T07:25:12.519Z,8.30
2022-12-14T07:30:16.250Z,7.85
2022-12-14T07:35:20.093Z,7.78
2022-12-14T07:40:25.302Z,10.13
2022-12-14T07:45:29.072Z,8.45
2022-12-14T07:50:32.935Z,8.75
2022-12-14T07:55:38.047Z,8.30
2022-12-14T08:00:41.763Z,9.05
2022-12-14T08:05:45.358Z,8.35
2022-12-14T08:10:50.992Z,9.25
2022-12-14T08:15:54.889Z,9.30
2022-12-14T08:20:58.705Z,8.82
2022-12-14T08:26:05.537Z,9.60
2022-12-14T08:31:11.275Z,8.25
2022-12-14T08:36:17.036Z,10.02
2022-12-14T08:41:22.224Z,8.65
2022-12-14T08:46:31.500Z,9.57
2022-12-14T08:51:38.533Z,9.88
2022-12-14T08:56:45.254Z,9.43
2022-12-14T09:01:49.370Z,9.85
2022-12-14T09:06:53.186Z,11.07
2022-12-14T09:12:03.335Z,12.27
2022-12-14T09:17:07.589Z,11.43
2022-12-14T09:22:11.741Z,10.30
2022-12-14T09:27:17.208Z,10.32
2022-12-14T09:32:20.918Z,9.98
2022-12-14T09:37:24.591Z,10.10
2022-12-14T09:42:51.050Z,10.93
2022-12-14T09:48:03.075Z,9.40
2022-12-14T09:53:09.259Z,10.63
2022-12-14T09:58:20.277Z,10.68
2022-12-14T10:03:40.364Z,10.27
2022-12-14T10:08:54.706Z,10.05
2022-12-14T10:14:11.169Z,10.30
2022-12-14T10:19:33.056Z,31.20
2022-12-14T10:24:42.160Z,10.15
2022-12-14T10:29:51.136Z,11.25
2022-12-14T10:34:54.876Z,10.43
2022-12-14T10:40:12.509Z,9.73
2022-12-14T10:45:40.365Z,10.52
2022-12-14T10:50:54.012Z,10.40
2022-12-14T10:56:02.985Z,10.05
2022-12-14T11:01:14.727Z,10.35
2022-12-14T11:06:21.112Z,9.80
2022-12-14T11:11:27.159Z,15.57
2022-12-14T11:16:39.033Z,9.18
2022-12-14T11:21:43.087Z,9.80
2022-12-14T11:26:47.327Z,9.90
2022-12-14T11:31:53.791Z,11.77
2022-12-14T11:36:57.891Z,10.25
2022-12-14T11:42:03.292Z,10.00
2022-12-14T11:47:13.898Z,9.23
2022-12-14T11:52:20.065Z,10.38
2022-12-14T11:57:29.105Z,9.82
2022-12-14T12:02:36.796Z,9.90
2022-12-14T12:07:44.236Z,9.75
2022-12-14T12:12:54.648Z,9.80
2022-12-14T12:18:02.942Z,8.77
2022-12-14T12:23:14.854Z,9.50
2022-12-14T12:28:26.306Z,9.23
2022-12-14T12:33:36.770Z,8.30
2022-12-14T12:38:56.476Z,8.40
2022-12-14T12:44:07.771Z,7.72
2022-12-14T12:49:14.964Z,6.43
2022-12-14T12:54:23.577Z,7.50
2022-12-14T12:59:36.305Z,6.55
2022-12-14T13:04:46.535Z,7.72
2022-12-14T13:10:01.854Z,9.77
2022-12-14T13:15:19.429Z,9.27
2022-12-14T13:20:28.612Z,9.85
2022-12-14T13:25:43.782Z,8.38
2022-12-14T13:30:56.980Z,8.82
2022-12-14T13:36:30.020Z,9.40
2022-12-14T13:41:37.657Z,9.65
2022-12-14T13:46:42.323Z,10.23
2022-12-14T13:51:50.805Z,10.52
2022-12-14T13:57:05.619Z,10.27
2022-12-14T14:02:40.711Z,10.95
2022-12-14T14:07:57.778Z,10.90
2022-12-14T14:13:02.453Z,9.55
2022-12-14T14:18:14.957Z,10.70
2022-12-14T14:23:35.983Z,10.30
2022-12-14T14:33:48.126Z,10.85
2022-12-14T14:38:56.079Z,11.18
2022-12-14T14:44:03.829Z,11.80
2022-12-14T14:49:08.087Z,10.60
2022-12-14T14:55:21.316Z,11.20
2022-12-14T15:00:02.770Z,11.38
2022-12-14T15:10:37.511Z,10.02
2022-12-14T15:20:58.784Z,10.73
2022-12-14T15:26:07.432Z,10.43
2022-12-14T15:31:12.903Z,9.93
2022-12-14T15:36:19.446Z,9.50
2022-12-14T15:41:26.573Z,9.65
2022-12-14T17:01:23.827Z,11.55
2022-12-14T17:06:37.529Z,11.52
2022-12-14T17:11:41.348Z,12.00
2022-12-14T17:16:48.061Z,13.77
2022-12-14T17:21:52.348Z,10.80
2022-12-14T17:26:55.931Z,11.30
2022-12-14T17:32:02.854Z,12.10
2022-12-14T17:37:12.741Z,15.88
2022-12-14T17:42:18.512Z,9.87
2022-12-14T17:47:23.863Z,12.15
2022-12-14T17:52:30.732Z,11.18
2022-12-14T17:57:34.633Z,11.82
2022-12-14T18:02:40.718Z,10.77
2022-12-14T18:07:44.779Z,10.65
2022-12-14T18:12:48.551Z,12.52
2022-12-14T18:17:53.800Z,12.63
2022-12-14T18:22:57.517Z,10.88
2022-12-14T18:28:02.165Z,11.82
2022-12-14T18:33:07.249Z,13.43
2022-12-14T18:38:10.837Z,13.02
2022-12-14T18:43:18.370Z,16.77
2022-12-14T18:48:24.502Z,13.88
2022-12-14T18:53:28.948Z,12.68
2022-12-14T18:58:32.931Z,11.75
2022-12-14T19:03:38.099Z,12.50
2022-12-14T19:08:42.573Z,12.98
2022-12-14T19:13:47.022Z,14.63
2022-12-14T19:18:52.537Z,14.00
2022-12-14T19:23:56.427Z,13.88
2022-12-14T19:29:00.335Z,13.65
2022-12-14T19:34:05.653Z,13.43
2022-12-14T19:39:09.230Z,33.80
2022-12-14T19:44:12.995Z,17.45
2022-12-14T19:49:18.838Z,29.75
2022-12-14T19:54:22.723Z,21.92
2022-12-14T19:59:26.516Z,27.45
2022-12-14T20:04:31.772Z,22.38
2022-12-14T20:09:36.040Z,23.90
2022-12-14T20:14:40.419Z,19.70
2022-12-14T20:19:45.654Z,18.73
2022-12-14T20:24:49.858Z,18.25
2022-12-14T20:29:53.633Z,17.35
2022-12-14T20:34:58.777Z,14.35
2022-12-14T20:40:02.585Z,14.65
2022-12-14T20:45:08.389Z,16.08
2022-12-14T20:50:13.472Z,16.23
2022-12-14T20:55:17.495Z,15.00
2022-12-14T21:00:21.672Z,14.95
2022-12-14T21:05:26.873Z,14.73
2022-12-14T21:10:30.644Z,16.55
2022-12-14T21:15:35.548Z,14.45
2022-12-14T21:20:40.492Z,14.77
2022-12-14T21:25:44.189Z,15.18
2022-12-14T21:30:47.917Z,18.23
2022-12-14T21:35:52.853Z,14.27
2022-12-14T21:41:14.617Z,16.42
2022-12-14T21:46:18.578Z,14.15
2022-12-14T21:51:23.946Z,14.20
2022-12-14T21:56:50.320Z,17.42
2022-12-14T22:01:54.449Z,15.52
2022-12-14T22:07:00.610Z,16.83
2022-12-14T22:12:04.323Z,15.90
2022-12-14T22:17:09.477Z,16.27
2022-12-14T22:22:16.447Z,15.80
2022-12-14T22:27:20.681Z,15.13
2022-12-14T22:32:24.352Z,13.93
2022-12-14T22:37:29.520Z,24.05
2022-12-14T22:42:33.037Z,15.45
2022-12-14T22:47:36.579Z,12.57
2022-12-14T22:52:41.598Z,13.77
2022-12-14T22:57:47.281Z,14.73
2022-12-14T23:02:51.121Z,14.02
2022-12-14T23:07:56.160Z,14.13
2022-12-14T23:13:16.911Z,13.38
2022-12-14T23:18:37.739Z,12.68
2022-12-14T23:24:01.993Z,12.63
2022-12-14T23:29:23.296Z,13.07
2022-12-14T23:34:44.153Z,13.10
2022-12-14T23:40:10.018Z,13.45
2022-12-14T23:45:30.758Z,13.25
2022-12-14T23:50:51.692Z,12.68
2022-12-14T23:56:13.952Z,12.52
